Time;durP1;ratioP1;P1;durP2;ratioP2;P2;SDS_P1;SDS_P2;PMS_P1;PMS_P2;Temp;Humidity;BMP_temperature;BMP_pressure;BME280_temperature;BME280_humidity;BME280_pressure;Samples;Min_cycle;Max_cycle;Signal;HPM_P1;HPM_P2
2022/06/05 00:01:44;;;;;;;18.98;8.52;;;11.20;99.90;;;;;;5014890;28;20042;-80
2022/06/05 00:04:43;;;;;;;21.45;8.65;;;11.30;99.90;;;;;;5009465;28;20033;-79
2022/06/05 00:07:44;;;;;;;17.35;9.07;;;11.20;99.90;;;;;;5008631;28;20133;-78
2022/06/05 00:10:37;;;;;;;20.42;9.73;;;11.20;99.90;;;;;;4923203;29;20044;-79
2022/06/05 00:13:21;;;;;;;19.42;10.10;;;11.20;99.90;;;;;;4903120;29;20058;-77
2022/06/05 00:15:47;;;;;;;17.95;10.00;;;11.20;99.90;;;;;;4921153;29;20086;-78
2022/06/05 00:18:15;;;;;;;22.77;10.27;;;11.20;99.90;;;;;;4916668;29;20451;-78
2022/06/05 00:20:43;;;;;;;18.08;10.40;;;11.30;99.90;;;;;;4898208;29;20048;-79
2022/06/05 00:23:09;;;;;;;16.23;10.48;;;11.20;99.90;;;;;;4924544;29;20090;-76
2022/06/05 00:25:46;;;;;;;22.33;10.63;;;11.10;99.90;;;;;;4914276;29;20052;-77
2022/06/05 00:28:22;;;;;;;18.08;10.40;;;11.10;99.90;;;;;;4927160;29;20495;-80
2022/06/05 00:31:08;;;;;;;21.20;11.13;;;11.20;99.90;;;;;;4915644;29;20233;-79
2022/06/05 00:33:38;;;;;;;27.10;10.63;;;11.10;99.90;;;;;;4912905;29;20130;-77
2022/06/05 00:36:28;;;;;;;20.55;10.73;;;11.20;99.90;;;;;;4920561;29;20600;-78
2022/06/05 00:39:10;;;;;;;23.52;10.43;;;11.10;99.90;;;;;;4920754;29;20047;-79
2022/06/05 00:41:59;;;;;;;18.15;10.18;;;11.10;99.90;;;;;;4928094;29;20059;-79
2022/06/05 00:44:50;;;;;;;21.23;11.32;;;11.20;99.90;;;;;;4903474;29;20108;-78
2022/06/05 00:47:19;;;;;;;18.77;11.25;;;11.10;99.90;;;;;;4992986;28;20057;-78
2022/06/05 00:49:59;;;;;;;22.08;11.82;;;11.20;99.90;;;;;;4998337;28;20079;-77
2022/06/05 00:52:31;;;;;;;19.70;11.70;;;11.10;99.90;;;;;;5009833;28;20044;-79
2022/06/05 00:54:56;;;;;;;19.98;11.32;;;11.20;99.90;;;;;;5016967;28;20136;-77
2022/06/05 00:57:26;;;;;;;23.20;11.98;;;11.20;99.90;;;;;;4993805;28;20129;-79
2022/06/05 00:59:54;;;;;;;27.23;12.80;;;11.20;99.90;;;;;;5019544;28;20049;-78
2022/06/05 01:02:20;;;;;;;23.70;11.70;;;11.20;99.90;;;;;;5002878;28;20049;-80
2022/06/05 01:04:49;;;;;;;16.92;11.50;;;11.20;99.90;;;;;;5010852;28;20061;-78
2022/06/05 01:07:15;;;;;;;23.58;11.38;;;11.10;99.90;;;;;;4995232;28;20408;-80
2022/06/05 01:09:42;;;;;;;17.02;10.70;;;11.10;99.90;;;;;;4990402;28;20065;-79
2022/06/05 01:12:23;;;;;;;21.02;11.30;;;11.20;99.90;;;;;;4991883;28;20086;-78
2022/06/05 01:15:11;;;;;;;26.00;11.48;;;11.20;99.90;;;;;;5007642;28;20072;-77
2022/06/05 01:17:46;;;;;;;20.38;11.52;;;11.20;99.90;;;;;;4993385;28;20084;-77
2022/06/05 01:20:43;;;;;;;23.70;10.95;;;11.20;99.90;;;;;;4994294;28;20050;-80
2022/06/05 01:23:27;;;;;;;21.35;11.13;;;11.10;99.90;;;;;;4995674;28;20050;-80
2022/06/05 01:26:03;;;;;;;20.63;11.50;;;11.30;99.90;;;;;;4999496;28;20129;-77
2022/06/05 01:28:37;;;;;;;17.45;10.80;;;11.20;99.90;;;;;;4995086;28;20041;-79
2022/06/05 01:31:29;;;;;;;23.08;10.77;;;11.20;99.90;;;;;;5021675;28;20075;-77
2022/06/05 01:34:12;;;;;;;18.38;10.40;;;11.20;99.90;;;;;;4936228;28;20055;-78
2022/06/05 01:36:48;;;;;;;24.90;10.80;;;11.20;99.90;;;;;;4939511;29;20047;-78
2022/06/05 01:39:25;;;;;;;20.00;10.82;;;11.20;99.90;;;;;;4947044;28;20355;-79
2022/06/05 01:41:58;;;;;;;22.25;10.32;;;11.30;99.90;;;;;;4946941;28;20047;-78
2022/06/05 01:44:33;;;;;;;17.17;10.25;;;11.30;99.90;;;;;;4947768;28;20074;-77
2022/06/05 01:47:05;;;;;;;25.20;11.35;;;11.20;99.90;;;;;;4939928;28;20478;-76
2022/06/05 01:49:39;;;;;;;17.80;10.48;;;11.30;99.90;;;;;;4928513;29;20047;-77
2022/06/05 01:52:29;;;;;;;19.77;11.07;;;11.50;99.90;;;;;;4929807;28;20058;-79
2022/06/05 01:55:07;;;;;;;16.45;10.75;;;11.30;99.90;;;;;;4941308;29;20520;-78
2022/06/05 01:57:34;;;;;;;20.40;10.73;;;11.30;99.90;;;;;;4940536;29;20051;-78
2022/06/05 02:00:08;;;;;;;16.45;9.73;;;11.40;99.90;;;;;;4941837;29;20039;-78
2022/06/05 02:02:40;;;;;;;20.45;10.73;;;11.40;99.90;;;;;;4951138;28;20046;-78
2022/06/05 02:05:10;;;;;;;22.63;11.63;;;11.30;99.90;;;;;;4937114;28;20058;-80
2022/06/05 02:08:15;;;;;;;18.92;11.60;;;11.30;99.90;;;;;;4938464;29;20049;-78
2022/06/05 02:10:52;;;;;;;23.90;11.20;;;11.30;99.90;;;;;;4955017;28;20053;-76
2022/06/05 02:13:19;;;;;;;25.48;11.38;;;11.30;99.90;;;;;;5037709;28;20041;-78
2022/06/05 02:15:47;;;;;;;16.08;10.07;;;11.40;99.90;;;;;;5018678;28;20049;-78
2022/06/05 02:18:15;;;;;;;20.88;11.23;;;11.40;99.90;;;;;;5021055;28;20064;-78
2022/06/05 02:20:45;;;;;;;20.88;11.30;;;11.40;99.90;;;;;;5030791;28;20048;-77
2022/06/05 02:23:15;;;;;;;16.35;10.30;;;11.40;99.90;;;;;;5030391;28;20407;-78
2022/06/05 02:25:41;;;;;;;18.55;11.18;;;11.30;99.90;;;;;;5025180;28;20117;-79
2022/06/05 02:28:12;;;;;;;20.45;11.20;;;11.30;99.90;;;;;;5006527;28;20045;-78
2022/06/05 02:30:53;;;;;;;19.75;11.00;;;11.40;99.90;;;;;;5023803;28;20116;-78
2022/06/05 02:33:33;;;;;;;20.70;10.55;;;11.40;99.90;;;;;;5035157;28;20051;-80
2022/06/05 02:36:02;;;;;;;21.08;10.95;;;11.40;99.90;;;;;;5008979;28;20040;-81
2022/06/05 02:38:55;;;;;;;17.77;11.43;;;11.40;99.90;;;;;;4997035;28;20048;-81
2022/06/05 02:41:46;;;;;;;29.30;11.68;;;11.40;99.90;;;;;;5023405;28;20159;-78
2022/06/05 02:44:29;;;;;;;19.60;11.65;;;11.50;99.90;;;;;;5021324;28;20080;-79
2022/06/05 02:47:17;;;;;;;19.48;11.32;;;11.40;99.90;;;;;;5036548;28;20044;-79
2022/06/05 02:49:52;;;;;;;22.42;11.43;;;11.40;99.90;;;;;;5015326;28;20042;-78
2022/06/05 02:52:19;;;;;;;23.48;12.07;;;11.40;99.90;;;;;;5040344;28;20037;-78
2022/06/05 02:54:57;;;;;;;20.25;12.30;;;11.50;99.90;;;;;;5034215;28;20091;-81
2022/06/05 02:57:22;;;;;;;25.92;12.02;;;11.50;99.90;;;;;;5033025;28;20455;-78
2022/06/05 02:59:48;;;;;;;22.13;12.57;;;11.60;99.90;;;;;;5014868;28;20536;-78
2022/06/05 03:04:58;;;;;;;21.45;12.38;;;11.60;99.90;;;;;;5015949;28;20128;-78
2022/06/05 03:07:24;;;;;;;23.85;12.63;;;11.60;99.90;;;;;;5011210;28;20120;-78
2022/06/05 03:09:50;;;;;;;23.17;11.18;;;11.50;99.90;;;;;;5025873;28;20562;-80
2022/06/05 03:12:16;;;;;;;20.65;12.48;;;11.50;99.90;;;;;;5010762;28;20140;-78
2022/06/05 03:14:44;;;;;;;26.27;13.55;;;11.60;99.90;;;;;;5025543;28;20080;-80
2022/06/05 03:17:11;;;;;;;23.00;13.13;;;11.60;99.90;;;;;;5034830;28;20103;-79
2022/06/05 03:19:36;;;;;;;27.65;13.05;;;11.60;99.90;;;;;;5015163;28;20044;-78
2022/06/05 03:22:02;;;;;;;27.65;13.27;;;11.70;99.90;;;;;;4999957;28;20049;-79
2022/06/05 03:24:28;;;;;;;27.58;14.25;;;11.60;99.90;;;;;;5014945;28;20056;-79
2022/06/05 03:26:54;;;;;;;25.25;13.73;;;11.60;99.90;;;;;;5016117;28;20033;-81
2022/06/05 03:29:21;;;;;;;26.33;12.80;;;11.70;99.90;;;;;;5021524;28;20131;-79
2022/06/05 03:31:46;;;;;;;25.58;13.30;;;11.70;99.90;;;;;;5022557;28;20555;-77
2022/06/05 03:34:16;;;;;;;24.08;13.13;;;11.70;99.90;;;;;;4983926;28;20137;-78
2022/06/05 03:36:46;;;;;;;25.35;13.77;;;11.70;99.90;;;;;;4997016;28;20089;-79
2022/06/05 03:39:15;;;;;;;22.27;13.35;;;11.70;99.90;;;;;;5011206;28;20117;-78
2022/06/05 03:41:40;;;;;;;28.38;13.32;;;11.80;99.90;;;;;;4999055;28;20400;-79
2022/06/05 03:44:06;;;;;;;24.38;13.57;;;11.80;99.90;;;;;;5012472;28;20036;-76
2022/06/05 03:46:35;;;;;;;24.63;12.90;;;11.80;99.90;;;;;;5018779;28;20536;-79
2022/06/05 03:49:01;;;;;;;27.13;13.75;;;11.90;99.90;;;;;;4995213;28;20045;-78
2022/06/05 03:52:05;;;;;;;25.85;13.68;;;11.90;99.90;;;;;;5023159;28;20138;-80
2022/06/05 03:54:33;;;;;;;24.25;13.68;;;11.90;99.90;;;;;;5005426;28;20140;-81
2022/06/05 03:57:00;;;;;;;26.30;13.85;;;11.90;99.90;;;;;;4992854;28;20068;-80
2022/06/05 03:59:25;;;;;;;26.30;13.27;;;11.90;99.90;;;;;;5016343;28;20037;-78
2022/06/05 04:01:51;;;;;;;31.60;14.32;;;12.10;99.90;;;;;;5030988;28;20452;-81
2022/06/05 04:04:17;;;;;;;25.00;13.68;;;12.00;99.90;;;;;;5011930;28;20044;-80
2022/06/05 04:06:43;;;;;;;25.80;14.35;;;11.90;99.90;;;;;;5016113;28;20041;-80
2022/06/05 04:09:09;;;;;;;21.48;13.27;;;11.90;99.90;;;;;;5013057;28;20052;-80
2022/06/05 04:11:37;;;;;;;29.27;14.18;;;12.00;99.90;;;;;;5011630;28;20109;-78
2022/06/05 04:14:03;;;;;;;22.98;13.25;;;12.10;99.90;;;;;;5010429;28;20057;-81
2022/06/05 04:16:31;;;;;;;23.27;12.95;;;12.10;99.90;;;;;;5009487;28;20045;-78
2022/06/05 04:18:58;;;;;;;22.88;13.27;;;12.10;99.90;;;;;;4985854;28;20120;-79
2022/06/05 04:21:27;;;;;;;26.42;13.77;;;12.20;99.90;;;;;;5006666;28;20056;-81
2022/06/05 04:23:54;;;;;;;29.40;14.13;;;12.20;99.90;;;;;;5011196;28;20053;-80
2022/06/05 04:26:23;;;;;;;20.98;11.93;;;12.30;99.90;;;;;;5013115;28;20120;-81
2022/06/05 04:28:49;;;;;;;20.10;13.07;;;12.40;99.90;;;;;;5011144;28;20053;-79
2022/06/05 04:31:21;;;;;;;27.25;13.57;;;12.40;99.90;;;;;;4995577;28;20053;-82
2022/06/05 04:33:49;;;;;;;24.77;13.35;;;12.50;99.90;;;;;;5011696;28;20056;-81
2022/06/05 04:36:15;;;;;;;20.38;12.73;;;12.50;99.90;;;;;;5010169;28;20034;-79
2022/06/05 04:38:41;;;;;;;20.65;12.07;;;12.80;99.90;;;;;;4992735;28;20085;-80
2022/06/05 04:41:08;;;;;;;19.58;11.65;;;13.00;99.90;;;;;;4998644;28;20143;-78
2022/06/05 04:43:34;;;;;;;24.10;12.82;;;13.50;99.90;;;;;;5011851;28;20399;-81
2022/06/05 04:46:00;;;;;;;19.35;11.23;;;14.00;99.90;;;;;;5030671;28;20396;-81
2022/06/05 04:48:25;;;;;;;19.40;10.75;;;14.40;99.90;;;;;;5010537;28;20040;-80
2022/06/05 04:50:51;;;;;;;22.45;10.98;;;14.50;99.90;;;;;;4995877;28;20391;-80
2022/06/05 04:53:19;;;;;;;18.27;11.13;;;14.80;99.90;;;;;;5009781;28;20532;-79
2022/06/05 04:55:45;;;;;;;18.98;10.90;;;15.00;99.90;;;;;;5010982;28;20041;-82
2022/06/05 04:58:10;;;;;;;18.83;11.65;;;14.40;99.90;;;;;;5028676;28;20332;-81
2022/06/05 05:00:36;;;;;;;20.05;11.57;;;14.20;99.90;;;;;;5013251;28;20056;-81
2022/06/05 05:03:02;;;;;;;20.35;11.48;;;14.00;99.90;;;;;;4999534;28;20041;-81
2022/06/05 05:05:28;;;;;;;18.52;11.40;;;13.90;99.90;;;;;;5017714;28;20377;-79
2022/06/05 05:07:53;;;;;;;22.05;11.45;;;13.80;99.90;;;;;;5019078;28;20124;-82
2022/06/05 05:10:19;;;;;;;19.88;11.73;;;13.90;99.90;;;;;;5026873;28;20065;-78
2022/06/05 05:12:45;;;;;;;17.70;10.75;;;13.70;99.90;;;;;;5049934;28;20069;-80
2022/06/05 05:15:11;;;;;;;23.50;11.80;;;13.70;99.90;;;;;;4996572;28;20128;-82
2022/06/05 05:17:37;;;;;;;18.35;11.95;;;13.70;99.90;;;;;;5028937;28;20156;-82
2022/06/05 05:20:03;;;;;;;19.20;12.05;;;13.70;99.90;;;;;;5035567;28;20128;-80
2022/06/05 05:22:29;;;;;;;24.40;11.95;;;13.80;99.90;;;;;;5017055;28;20391;-79
2022/06/05 05:24:55;;;;;;;19.58;11.48;;;13.80;99.90;;;;;;5030748;28;20162;-77
2022/06/05 05:27:22;;;;;;;20.98;11.27;;;13.80;99.90;;;;;;5013779;28;20121;-83
2022/06/05 05:29:47;;;;;;;18.02;11.60;;;13.80;99.90;;;;;;4999534;28;20068;-80
2022/06/05 05:32:13;;;;;;;16.70;10.70;;;13.90;99.90;;;;;;5014744;28;20071;-80
2022/06/05 05:34:39;;;;;;;17.50;11.65;;;14.10;99.90;;;;;;5031871;28;20038;-80
2022/06/05 05:37:05;;;;;;;17.98;12.00;;;14.20;99.90;;;;;;5028547;28;20074;-80
2022/06/05 05:42:15;;;;;;;18.63;11.30;;;14.50;99.90;;;;;;5029920;28;20550;-81
2022/06/05 05:44:42;;;;;;;16.50;10.73;;;14.90;99.90;;;;;;5028932;28;20037;-81
2022/06/05 05:47:15;;;;;;;17.13;11.18;;;14.90;99.90;;;;;;5011282;28;20092;-81
2022/06/05 05:49:41;;;;;;;19.38;10.70;;;14.80;99.90;;;;;;4999524;28;20141;-82
2022/06/05 05:52:07;;;;;;;21.02;11.35;;;15.10;99.90;;;;;;5022154;28;21342;-79
2022/06/05 05:54:34;;;;;;;14.05;10.57;;;15.10;99.90;;;;;;5003357;28;20103;-79
2022/06/05 05:57:00;;;;;;;15.93;10.48;;;15.20;99.90;;;;;;5054512;28;20055;-80
2022/06/05 05:59:26;;;;;;;20.63;10.68;;;15.30;99.90;;;;;;5025365;28;20152;-82
2022/06/05 06:01:52;;;;;;;19.67;10.55;;;15.30;99.90;;;;;;5025921;28;20044;-79
2022/06/05 06:04:18;;;;;;;16.50;10.68;;;15.40;99.90;;;;;;5031737;28;20476;-81
2022/06/05 06:06:45;;;;;;;16.55;10.57;;;15.50;99.90;;;;;;5030086;28;20076;-82
2022/06/05 06:09:15;;;;;;;15.57;10.48;;;15.50;99.90;;;;;;5028112;28;20400;-80
2022/06/05 06:11:41;;;;;;;15.95;10.05;;;15.50;99.90;;;;;;5027961;28;20095;-82
2022/06/05 06:14:07;;;;;;;18.60;10.15;;;15.50;99.90;;;;;;5047083;28;20341;-81
2022/06/05 06:16:35;;;;;;;16.67;10.50;;;15.60;99.90;;;;;;5015667;28;20069;-82
2022/06/05 06:19:02;;;;;;;15.05;9.88;;;15.60;99.90;;;;;;5011202;28;20049;-80
2022/06/05 06:21:34;;;;;;;15.88;10.30;;;15.60;99.90;;;;;;5010594;28;20057;-82
2022/06/05 06:24:00;;;;;;;14.57;9.68;;;15.60;99.90;;;;;;5012112;28;20125;-82
2022/06/05 06:26:25;;;;;;;15.35;10.13;;;15.60;99.90;;;;;;5030409;28;20167;-82
2022/06/05 06:28:51;;;;;;;14.55;9.60;;;15.70;99.90;;;;;;5029236;28;20136;-81
2022/06/05 06:31:17;;;;;;;12.57;9.50;;;15.80;99.90;;;;;;5036964;28;20118;-80
2022/06/05 06:33:45;;;;;;;14.75;9.98;;;15.80;99.90;;;;;;5044745;28;20045;-82
2022/06/05 06:36:12;;;;;;;14.82;10.15;;;15.90;99.90;;;;;;4989367;28;20477;-81
2022/06/05 06:38:38;;;;;;;13.32;9.10;;;16.10;99.90;;;;;;5036279;28;20056;-78
2022/06/05 06:41:07;;;;;;;14.55;9.07;;;16.10;99.90;;;;;;5036944;28;20073;-82
2022/06/05 06:43:34;;;;;;;17.35;9.43;;;16.20;99.90;;;;;;5016291;28;20044;-80
2022/06/05 06:46:00;;;;;;;10.60;8.40;;;16.20;99.90;;;;;;5000466;28;20118;-82
2022/06/05 06:48:26;;;;;;;12.13;9.25;;;16.50;99.90;;;;;;5033164;28;20544;-81
2022/06/05 06:50:53;;;;;;;11.38;8.30;;;16.60;99.90;;;;;;5021216;28;20045;-82
2022/06/05 06:53:20;;;;;;;10.88;8.82;;;16.60;99.90;;;;;;5045069;28;20048;-82
2022/06/05 06:55:48;;;;;;;9.55;7.80;;;16.70;99.90;;;;;;4999334;28;20484;-83
2022/06/05 06:58:14;;;;;;;11.43;8.23;;;16.80;99.90;;;;;;5031653;28;20495;-83
2022/06/05 07:00:40;;;;;;;14.05;8.05;;;16.80;99.90;;;;;;5014801;28;20089;-82
2022/06/05 07:03:06;;;;;;;9.85;8.30;;;16.90;99.90;;;;;;5011072;28;20057;-83
2022/06/05 07:05:33;;;;;;;10.25;7.97;;;17.00;99.90;;;;;;5031982;28;20387;-81
2022/06/05 07:07:59;;;;;;;11.95;8.20;;;17.10;99.90;;;;;;5015463;28;20080;-81
2022/06/05 07:10:25;;;;;;;12.73;8.65;;;17.20;99.90;;;;;;5020282;28;20052;-83
2022/06/05 07:12:50;;;;;;;11.90;8.13;;;17.20;99.90;;;;;;4985574;28;20104;-81
2022/06/05 07:15:17;;;;;;;14.10;8.60;;;17.20;99.90;;;;;;5012551;28;20049;-80
2022/06/05 07:17:49;;;;;;;11.07;7.70;;;17.40;99.90;;;;;;5020040;28;20037;-81
2022/06/05 07:20:15;;;;;;;10.20;7.70;;;17.40;99.90;;;;;;5030280;28;20041;-77
2022/06/05 07:22:41;;;;;;;11.60;8.07;;;17.70;99.90;;;;;;5014605;28;20100;-81
2022/06/05 07:25:08;;;;;;;10.32;7.38;;;17.70;99.90;;;;;;5004098;28;20048;-79
2022/06/05 07:27:33;;;;;;;10.93;7.47;;;17.80;99.90;;;;;;5022825;28;20451;-79
2022/06/05 07:30:01;;;;;;;14.48;8.20;;;17.90;99.90;;;;;;5016391;28;20048;-80
2022/06/05 07:32:27;;;;;;;14.77;8.20;;;18.00;99.90;;;;;;5008836;28;20106;-80
2022/06/05 07:34:53;;;;;;;16.05;7.95;;;18.10;99.90;;;;;;5013578;28;20053;-80
2022/06/05 07:37:19;;;;;;;11.25;7.20;;;18.10;99.90;;;;;;5014903;28;20037;-80
2022/06/05 07:39:44;;;;;;;11.02;7.65;;;18.20;99.90;;;;;;5028164;28;20037;-81
2022/06/05 07:42:11;;;;;;;10.63;7.43;;;18.20;99.90;;;;;;5021246;28;20040;-79
2022/06/05 07:44:37;;;;;;;11.75;7.70;;;18.30;99.90;;;;;;5012408;28;20045;-79
2022/06/05 07:47:05;;;;;;;10.25;8.00;;;18.30;99.90;;;;;;4993659;28;20401;-80
2022/06/05 07:49:31;;;;;;;11.52;8.02;;;18.30;99.90;;;;;;5010401;28;20149;-79
2022/06/05 07:54:41;;;;;;;10.57;7.33;;;18.50;99.90;;;;;;5015009;28;20056;-77
2022/06/05 07:57:12;;;;;;;9.82;7.63;;;18.70;99.90;;;;;;5002188;28;20426;-79
2022/06/05 07:59:45;;;;;;;12.55;7.55;;;18.80;99.90;;;;;;5015393;28;20045;-81
2022/06/05 08:02:23;;;;;;;9.48;6.90;;;18.90;99.90;;;;;;5016608;28;20033;-81
2022/06/05 08:04:51;;;;;;;13.30;7.18;;;19.00;99.90;;;;;;5028157;28;20672;-80
2022/06/05 08:07:20;;;;;;;12.07;7.38;;;19.10;99.90;;;;;;5034658;28;20036;-77
2022/06/05 08:09:47;;;;;;;9.65;7.07;;;19.20;99.90;;;;;;5016960;28;20452;-76
2022/06/05 08:12:15;;;;;;;9.00;6.90;;;19.30;99.90;;;;;;5019238;28;20120;-79
2022/06/05 08:14:42;;;;;;;8.75;6.82;;;19.40;99.90;;;;;;5004499;28;20063;-77
2022/06/05 08:17:11;;;;;;;12.77;7.47;;;19.50;99.90;;;;;;5009686;28;20077;-78
2022/06/05 08:19:39;;;;;;;7.90;6.03;;;19.60;99.90;;;;;;5008948;28;20149;-78
2022/06/05 08:22:06;;;;;;;10.68;7.20;;;19.60;99.90;;;;;;5007942;28;20116;-75
2022/06/05 08:24:36;;;;;;;8.13;6.60;;;19.60;99.90;;;;;;5012051;28;20057;-80
2022/06/05 08:27:02;;;;;;;8.80;6.65;;;19.80;99.90;;;;;;5022396;28;20048;-82
2022/06/05 08:29:28;;;;;;;9.13;7.18;;;19.90;99.90;;;;;;5027581;28;20048;-80
2022/06/05 08:31:54;;;;;;;8.07;6.78;;;19.90;99.90;;;;;;5007518;28;20045;-83
2022/06/05 08:34:20;;;;;;;10.35;6.97;;;20.00;99.90;;;;;;5025701;28;20094;-84
2022/06/05 08:36:47;;;;;;;13.45;6.97;;;20.20;99.90;;;;;;5017177;28;20107;-83
2022/06/05 08:42:27;;;;;;;9.02;6.15;;;20.30;99.90;;;;;;5027573;28;20048;-83
2022/06/05 08:45:09;;;;;;;10.85;6.63;;;20.50;99.90;;;;;;5006961;28;20120;-82
2022/06/05 08:47:57;;;;;;;9.73;6.53;;;20.60;99.90;;;;;;5023826;28;20037;-76
2022/06/05 08:50:43;;;;;;;6.80;6.07;;;20.80;99.90;;;;;;4999160;28;20045;-77
2022/06/05 08:53:33;;;;;;;9.05;6.13;;;20.90;99.90;;;;;;5001997;28;20083;-78
2022/06/05 08:55:59;;;;;;;11.57;6.50;;;21.10;99.90;;;;;;5020414;28;20527;-79
2022/06/05 08:58:45;;;;;;;9.00;6.22;;;21.10;99.90;;;;;;4986446;28;20089;-76
2022/06/05 09:01:32;;;;;;;9.23;6.07;;;21.30;99.90;;;;;;5025548;28;20029;-77
2022/06/05 09:04:35;;;;;;;9.40;6.30;;;21.40;99.90;;;;;;5011603;28;20508;-75
2022/06/05 09:07:06;;;;;;;9.73;6.30;;;21.70;99.90;;;;;;5027742;28;20044;-75
2022/06/05 09:10:04;;;;;;;11.35;6.25;;;21.80;99.90;;;;;;4994749;28;20435;-77
2022/06/05 09:12:41;;;;;;;8.15;5.70;;;21.90;99.90;;;;;;4977925;28;20052;-77
2022/06/05 09:15:19;;;;;;;8.63;5.88;;;21.80;99.90;;;;;;5013289;28;20053;-78
2022/06/05 09:17:58;;;;;;;6.97;5.65;;;21.80;99.90;;;;;;4995112;28;20061;-78
2022/06/05 09:20:49;;;;;;;10.55;6.05;;;21.90;99.90;;;;;;5009304;28;20806;-76
2022/06/05 09:23:20;;;;;;;7.78;5.82;;;22.00;99.90;;;;;;5023284;28;20076;-76
2022/06/05 09:26:08;;;;;;;7.82;6.03;;;22.00;99.90;;;;;;5008138;28;20057;-76
2022/06/05 09:28:51;;;;;;;9.23;6.18;;;22.10;99.90;;;;;;4997711;28;20164;-77
2022/06/05 09:31:56;;;;;;;9.48;5.90;;;22.10;99.90;;;;;;4988538;28;20069;-80
2022/06/05 09:34:45;;;;;;;7.80;5.35;;;22.20;99.90;;;;;;4978667;28;20285;-78
2022/06/05 09:37:43;;;;;;;8.52;5.97;;;22.30;99.90;;;;;;4951366;28;20034;-79
2022/06/05 09:40:33;;;;;;;10.25;5.60;;;22.50;99.90;;;;;;4966971;28;20062;-78
2022/06/05 09:43:35;;;;;;;6.50;5.07;;;22.70;99.90;;;;;;4947078;28;20104;-78
2022/06/05 09:46:38;;;;;;;8.30;5.28;;;22.90;99.90;;;;;;4965337;28;20047;-80
2022/06/05 09:49:18;;;;;;;6.95;5.38;;;23.00;99.90;;;;;;4962618;28;20050;-79
2022/06/05 09:51:45;;;;;;;7.53;5.03;;;23.30;99.90;;;;;;4965257;28;20050;-79
2022/06/05 09:54:22;;;;;;;8.60;5.40;;;23.50;99.90;;;;;;4951832;28;20065;-78
2022/06/05 10:00:37;;;;;;;6.68;5.05;;;23.50;99.90;;;;;;4927364;29;20641;-79
2022/06/05 10:03:11;;;;;;;8.82;5.60;;;23.40;99.90;;;;;;4912614;29;20047;-78
2022/06/05 10:05:40;;;;;;;15.70;5.15;;;23.50;99.90;;;;;;4911690;29;20090;-78
2022/06/05 10:08:24;;;;;;;7.65;5.22;;;23.60;99.90;;;;;;4931877;28;20065;-78
2022/06/05 10:10:56;;;;;;;7.15;5.47;;;23.70;99.90;;;;;;4948207;28;20032;-79
2022/06/05 10:13:51;;;;;;;5.93;4.65;;;23.70;99.90;;;;;;4932920;28;20130;-79
2022/06/05 10:16:34;;;;;;;7.55;4.80;;;23.70;99.90;;;;;;4949716;28;20093;-78
2022/06/05 10:19:29;;;;;;;7.75;4.38;;;23.90;99.90;;;;;;4948293;28;20577;-80
2022/06/05 10:22:08;;;;;;;9.13;5.10;;;24.10;99.90;;;;;;4933933;28;20568;-79
2022/06/05 10:24:34;;;;;;;6.82;4.60;;;24.10;99.90;;;;;;4954191;28;20204;-78
2022/06/05 10:27:02;;;;;;;6.68;4.97;;;24.40;99.90;;;;;;4942884;28;20109;-79
2022/06/05 10:29:44;;;;;;;11.95;4.93;;;24.50;99.90;;;;;;4942592;28;20031;-79
2022/06/05 10:32:36;;;;;;;9.52;4.80;;;24.70;99.90;;;;;;4937191;29;20042;-80
2022/06/05 10:35:15;;;;;;;7.13;4.32;;;24.80;99.90;;;;;;4986458;28;20063;-80
2022/06/05 10:38:09;;;;;;;7.72;4.60;;;24.90;99.90;;;;;;4991514;28;20034;-80
2022/06/05 10:40:44;;;;;;;8.30;4.88;;;24.90;99.90;;;;;;4994268;28;20049;-79
2022/06/05 10:43:26;;;;;;;5.97;4.13;;;25.10;99.90;;;;;;5028411;28;20459;-79
2022/06/05 10:46:04;;;;;;;5.22;4.15;;;25.20;99.90;;;;;;5009676;28;20049;-79
2022/06/05 10:48:58;;;;;;;5.20;3.70;;;25.20;99.90;;;;;;4995530;28;20481;-78
2022/06/05 10:51:32;;;;;;;4.50;3.70;;;25.30;99.90;;;;;;5013666;28;20037;-80
2022/06/05 10:53:57;;;;;;;5.25;4.15;;;25.30;99.90;;;;;;5011720;28;20069;-79
2022/06/05 10:56:53;;;;;;;6.68;4.65;;;25.20;99.90;;;;;;5004486;28;20077;-78
2022/06/05 10:59:23;;;;;;;5.22;4.35;;;25.00;99.90;;;;;;4998707;28;20075;-79
2022/06/05 11:02:14;;;;;;;5.70;4.20;;;24.70;99.90;;;;;;5012128;28;20129;-80
2022/06/05 11:04:56;;;;;;;6.05;4.53;;;24.80;99.90;;;;;;5012914;28;20034;-79
2022/06/05 11:07:48;;;;;;;7.60;4.38;;;24.80;99.90;;;;;;4995054;28;20481;-76
2022/06/05 11:13:39;;;;;;;6.65;4.70;;;24.70;99.90;;;;;;5006639;28;20072;-77
2022/06/05 11:13:40;;;;;;;7.18;4.57;;;24.70;99.90;;;;;;5013245;28;20053;-78
2022/06/05 11:16:39;;;;;;;10.00;4.55;;;24.80;99.90;;;;;;5015494;28;20044;-78
2022/06/05 11:19:15;;;;;;;10.18;4.80;;;24.70;99.90;;;;;;5010223;28;20137;-78
2022/06/05 11:21:48;;;;;;;6.82;4.10;;;24.60;99.90;;;;;;5015587;28;20080;-79
2022/06/05 11:24:30;;;;;;;5.97;4.45;;;24.60;99.90;;;;;;5025202;28;20041;-80
2022/06/05 11:27:04;;;;;;;5.15;4.45;;;24.60;99.90;;;;;;5028066;28;20049;-79
2022/06/05 11:29:45;;;;;;;5.90;4.00;;;24.60;99.90;;;;;;5025339;28;20128;-79
2022/06/05 11:32:39;;;;;;;5.78;3.97;;;24.80;99.90;;;;;;5015807;28;20044;-80
2022/06/05 11:35:46;;;;;;;7.65;3.83;;;24.70;99.90;;;;;;5025662;28;20087;-79
2022/06/05 11:38:45;;;;;;;6.43;4.22;;;24.80;99.90;;;;;;5012086;28;20432;-79
2022/06/05 11:41:44;;;;;;;5.82;3.78;;;24.80;99.90;;;;;;5029909;28;20431;-80
2022/06/05 11:44:56;;;;;;;6.35;3.90;;;24.70;99.90;;;;;;4988973;28;20049;-80
2022/06/05 11:47:34;;;;;;;7.50;3.97;;;24.80;99.90;;;;;;4966777;28;20053;-80
2022/06/05 11:50:33;;;;;;;9.35;4.20;;;24.90;99.90;;;;;;4952768;28;20050;-80
2022/06/05 11:53:18;;;;;;;4.38;3.60;;;24.90;99.90;;;;;;4963536;28;20066;-77
2022/06/05 11:55:58;;;;;;;8.38;3.58;;;25.20;99.90;;;;;;4960440;28;20553;-79
2022/06/05 11:58:37;;;;;;;6.50;4.03;;;25.10;99.90;;;;;;4950724;28;20134;-83
2022/06/05 12:01:10;;;;;;;7.13;3.70;;;25.20;99.90;;;;;;4967269;28;20074;-86
2022/06/05 12:03:36;;;;;;;5.47;3.97;;;25.20;99.90;;;;;;4936155;28;20482;-87
2022/06/05 12:06:27;;;;;;;7.15;3.50;;;25.20;99.90;;;;;;4950843;28;20054;-86
2022/06/05 12:09:00;;;;;;;7.13;3.83;;;25.30;99.90;;;;;;4935205;28;20462;-86
2022/06/05 12:11:50;;;;;;;7.25;3.75;;;25.30;99.90;;;;;;4951101;28;20579;-86
2022/06/05 12:14:29;;;;;;;6.05;3.92;;;25.20;99.90;;;;;;4951638;28;20125;-86
2022/06/05 12:17:17;;;;;;;7.03;3.80;;;25.10;99.90;;;;;;4949589;28;20095;-86
2022/06/05 12:20:04;;;;;;;6.15;3.80;;;25.20;99.90;;;;;;4948777;28;20039;-86
2022/06/05 12:22:35;;;;;;;6.68;3.70;;;25.20;99.90;;;;;;4969232;28;20129;-84
2022/06/05 12:25:32;;;;;;;4.65;3.40;;;25.00;99.90;;;;;;5013893;28;20046;-85
2022/06/05 12:28:03;;;;;;;10.05;4.07;;;25.00;99.90;;;;;;5004506;28;20393;-85
2022/06/05 12:30:36;;;;;;;6.07;3.83;;;25.30;99.90;;;;;;4999376;28;20499;-86
2022/06/05 12:33:16;;;;;;;5.35;3.80;;;25.50;99.90;;;;;;4989558;28;20056;-85
2022/06/05 12:35:49;;;;;;;5.88;4.10;;;25.60;99.90;;;;;;5011617;28;20077;-84
2022/06/05 12:38:37;;;;;;;7.78;3.50;;;25.50;99.90;;;;;;5013122;28;20067;-86
2022/06/05 12:41:20;;;;;;;6.25;3.88;;;25.70;99.90;;;;;;5008205;28;20084;-84
2022/06/05 12:44:31;;;;;;;8.52;4.00;;;25.60;99.90;;;;;;5013846;28;20076;-84
2022/06/05 12:47:25;;;;;;;7.82;3.67;;;25.70;99.90;;;;;;4952981;28;20062;-83
2022/06/05 12:49:54;;;;;;;7.63;4.05;;;25.70;99.90;;;;;;4934582;28;20181;-87
2022/06/05 12:52:38;;;;;;;5.82;3.75;;;25.60;99.90;;;;;;4948012;28;20498;-87
2022/06/05 12:55:17;;;;;;;7.18;3.58;;;25.70;99.90;;;;;;4944357;28;20042;-83
2022/06/05 12:57:46;;;;;;;5.30;3.28;;;25.60;99.90;;;;;;4963785;28;20458;-82
2022/06/05 13:00:18;;;;;;;8.05;3.50;;;25.60;99.90;;;;;;4949717;28;20047;-83
2022/06/05 13:03:01;;;;;;;8.90;3.40;;;25.50;99.90;;;;;;4959878;28;20506;-83
2022/06/05 13:05:35;;;;;;;8.20;3.58;;;25.40;99.90;;;;;;4949660;28;20045;-81
2022/06/05 13:08:05;;;;;;;;;;;25.40;99.90;;;;;;4942708;28;20506;-81
2022/06/05 13:10:39;;;;;;;4.93;3.58;;;25.20;99.90;;;;;;4949780;28;20357;-83
2022/06/05 13:13:34;;;;;;;13.75;3.97;;;25.10;99.90;;;;;;4947204;28;20039;-82
2022/06/05 13:16:05;;;;;;;9.30;4.18;;;24.90;99.90;;;;;;4945395;28;20406;-83
2022/06/05 13:19:00;;;;;;;10.60;4.20;;;25.00;99.90;;;;;;4997137;28;20538;-82
2022/06/05 13:21:37;;;;;;;10.13;4.00;;;24.80;99.90;;;;;;4999505;28;20041;-84
2022/06/05 13:24:32;;;;;;;8.77;3.80;;;24.90;99.90;;;;;;4988886;28;20149;-84
2022/06/05 13:27:19;;;;;;;6.35;3.53;;;24.80;99.90;;;;;;5014567;28;20049;-83
2022/06/05 13:30:20;;;;;;;6.88;3.60;;;24.80;99.90;;;;;;5018010;28;20080;-84